Time;durP1;ratioP1;P1;durP2;ratioP2;P2;SDS_P1;SDS_P2;PMS_P1;PMS_P2;Temp;Humidity;BMP_temperature;BMP_pressure;BME280_temperature;BME280_humidity;BME280_pressure;Samples;Min_cycle;Max_cycle;Signal;HPM_P1;HPM_P2
2022/01/03 00:01:48;;;;;;;3.50;2.10;;;;;;;8.68;77.63;98732.17;103954;1303;24280;-29
2022/01/03 00:04:15;;;;;;;4.70;3.80;;;;;;;8.55;78.00;98731.55;103787;1300;24285;-29
2022/01/03 00:06:40;;;;;;;13.30;2.30;;;;;;;8.56;78.01;98730.73;103839;1301;24338;-25
2022/01/03 00:09:07;;;;;;;3.90;2.90;;;;;;;8.48;77.91;98728.06;103699;1300;24296;-29
2022/01/03 00:11:33;;;;;;;6.20;2.70;;;;;;;8.76;76.90;98719.31;103655;1300;24214;-29
2022/01/03 00:13:59;;;;;;;3.40;2.40;;;;;;;8.47;77.91;98725.10;103689;1303;24144;-29
2022/01/03 00:16:26;;;;;;;6.00;4.20;;;;;;;8.47;78.17;98723.16;103826;1303;24263;-29
2022/01/03 00:18:53;;;;;;;2.90;1.60;;;;;;;8.87;76.59;98718.27;103580;1303;24349;-25
2022/01/03 00:21:20;;;;;;;19.10;2.60;;;;;;;8.80;76.45;98725.27;103570;1300;22562;-29
2022/01/03 00:23:50;;;;;;;2.30;1.60;;;;;;;8.67;76.49;98729.75;103833;1300;24372;-29
2022/01/03 00:26:20;;;;;;;4.60;3.00;;;;;;;8.44;77.55;98728.33;103853;1303;24446;-25
2022/01/03 00:28:51;;;;;;;4.40;2.00;;;;;;;8.65;76.81;98723.11;103977;1300;24310;-30
2022/01/03 00:31:17;;;;;;;3.90;2.60;;;;;;;8.50;77.13;98724.21;103782;1303;24320;-29
2022/01/03 00:33:43;;;;;;;3.90;2.00;;;;;;;8.50;77.34;98726.11;103723;1300;24377;-25
2022/01/03 00:36:09;;;;;;;3.90;2.40;;;;;;;8.47;77.22;98725.77;103774;1300;24170;-30
2022/01/03 00:38:35;;;;;;;2.80;2.00;;;;;;;8.49;77.28;98724.89;103604;1303;22798;-27
2022/01/03 00:41:01;;;;;;;3.50;1.80;;;;;;;8.35;77.57;98717.73;103818;1300;22519;-25
2022/01/03 00:43:29;;;;;;;4.90;1.90;;;;;;;8.37;77.48;98717.61;103745;1302;22750;-29
2022/01/03 00:45:55;;;;;;;2.50;2.20;;;;;;;8.32;77.77;98715.05;103558;1300;24324;-29
2022/01/03 00:48:21;;;;;;;3.70;2.00;;;;;;;8.36;77.67;98714.20;103623;1300;24198;-25
2022/01/03 00:50:47;;;;;;;6.60;2.90;;;;;;;8.27;78.04;98718.36;103556;1300;24338;-29
2022/01/03 00:53:13;;;;;;;4.20;2.30;;;;;;;8.32;77.31;98716.57;103572;1300;24230;-26
2022/01/03 00:55:53;;;;;;;4.40;2.70;;;;;;;8.26;77.61;98716.70;103594;1302;24223;-25
2022/01/03 00:58:19;;;;;;;3.30;2.20;;;;;;;8.43;77.10;98712.23;103583;1302;23924;-26
2022/01/03 01:00:45;;;;;;;6.60;2.80;;;;;;;8.30;77.14;98714.00;103459;1302;22511;-25
2022/01/03 01:03:15;;;;;;;6.70;2.80;;;;;;;8.21;77.77;98711.66;103540;1302;24221;-25
2022/01/03 01:05:43;;;;;;;4.50;2.50;;;;;;;8.07;78.39;98714.16;103526;1302;23892;-29
2022/01/03 01:08:09;;;;;;;5.60;4.20;;;;;;;8.08;78.22;98709.20;103555;1302;24147;-29
2022/01/03 01:10:38;;;;;;;5.20;2.50;;;;;;;8.06;78.40;98710.95;103488;1302;22514;-25
2022/01/03 01:13:07;;;;;;;4.30;2.50;;;;;;;8.08;78.43;98702.48;103537;1302;22513;-29
2022/01/03 01:15:34;;;;;;;4.40;2.40;;;;;;;8.10;78.15;98704.48;103534;1301;22773;-29
2022/01/03 01:18:03;;;;;;;4.50;2.50;;;;;;;8.02;78.30;98700.77;103549;1302;24372;-31
2022/01/03 01:20:29;;;;;;;5.60;2.90;;;;;;;7.98;78.74;98708.89;103521;1302;24330;-31
2022/01/03 01:22:55;;;;;;;5.20;2.60;;;;;;;8.03;78.13;98710.31;103557;1302;24232;-26
2022/01/03 01:27:45;;;;;;;2.80;1.80;;;;;;;7.96;78.98;98704.03;103592;1301;24292;-29
2022/01/03 01:28:09;;;;;;;4.20;2.30;;;;;;;7.98;78.67;98696.97;103553;1302;23992;-24
2022/01/03 01:30:35;;;;;;;4.30;2.20;;;;;;;7.84;79.19;98700.25;103588;1302;24388;-25
2022/01/03 01:33:02;;;;;;;6.90;2.80;;;;;;;7.91;79.12;98695.86;103556;1302;24234;-26
2022/01/03 01:35:31;;;;;;;3.50;2.30;;;;;;;7.81;79.35;98695.83;103580;1302;24174;-26
2022/01/03 01:37:57;;;;;;;5.80;2.00;;;;;;;8.04;78.65;98700.52;103607;1302;24213;-25
2022/01/03 01:40:23;;;;;;;3.40;1.80;;;;;;;7.92;78.93;98697.02;103490;1299;24286;-30
2022/01/03 01:42:49;;;;;;;6.10;3.40;;;;;;;7.96;79.19;98700.04;103579;1301;22523;-28
2022/01/03 01:45:16;;;;;;;4.50;1.50;;;;;;;7.95;79.22;98697.19;103494;1302;24203;-29
2022/01/03 01:47:42;;;;;;;3.80;2.10;;;;;;;8.02;78.76;98698.30;103545;1302;24565;-25
2022/01/03 01:50:09;;;;;;;6.10;2.50;;;;;;;7.90;79.47;98692.85;103530;1302;24722;-25
2022/01/03 01:52:36;;;;;;;4.20;1.90;;;;;;;8.09;78.82;98686.44;103569;1301;24232;-29
2022/01/03 01:55:06;;;;;;;6.40;2.10;;;;;;;8.03;78.94;98686.58;103523;1302;24170;-26
2022/01/03 01:57:39;;;;;;;2.90;2.00;;;;;;;8.09;79.05;98678.35;103431;1301;24221;-30
2022/01/03 02:00:08;;;;;;;2.80;2.00;;;;;;;8.07;79.18;98673.15;103553;1300;23823;-24
2022/01/03 02:02:36;;;;;;;2.80;2.00;;;;;;;8.07;79.29;98666.81;103594;1302;24356;-30
2022/01/03 02:05:19;;;;;;;4.60;2.50;;;;;;;8.27;78.36;98653.73;103549;1300;24297;-25
2022/01/03 02:07:52;;;;;;;3.00;1.70;;;;;;;8.25;78.44;98651.71;103430;1302;24520;-25
2022/01/03 02:10:18;;;;;;;4.90;2.70;;;;;;;8.21;78.66;98650.70;103510;1302;22514;-25
2022/01/03 02:12:46;;;;;;;3.40;2.20;;;;;;;8.28;78.72;98645.17;103564;1302;24267;-28
2022/01/03 02:15:14;;;;;;;4.60;2.40;;;;;;;8.29;78.64;98633.58;103536;1302;24330;-28
2022/01/03 02:17:40;;;;;;;3.10;1.70;;;;;;;8.38;77.99;98634.20;103584;1302;22811;-32
2022/01/03 02:20:07;;;;;;;8.40;3.00;;;;;;;8.36;78.38;98625.21;103555;1302;25349;-30
2022/01/03 02:22:33;;;;;;;7.60;3.20;;;;;;;8.30;78.39;98618.80;103561;1302;24253;-25
2022/01/03 02:24:59;;;;;;;3.20;2.70;;;;;;;8.31;78.32;98615.86;103625;1302;24268;-25
2022/01/03 02:27:25;;;;;;;3.70;1.90;;;;;;;8.08;79.31;98610.98;103542;1302;24276;-25
2022/01/03 02:29:52;;;;;;;4.00;2.30;;;;;;;7.87;80.19;98612.25;103507;1302;24120;-29
2022/01/03 02:32:18;;;;;;;3.20;2.10;;;;;;;8.06;79.75;98605.05;103585;1302;24311;-29
2022/01/03 02:34:44;;;;;;;3.40;1.90;;;;;;;7.79;81.12;98601.44;103545;1301;24191;-29
2022/01/03 02:37:10;;;;;;;4.50;3.00;;;;;;;7.81;80.76;98603.95;103552;1302;24125;-29
2022/01/03 02:39:37;;;;;;;6.80;3.40;;;;;;;7.94;80.36;98597.84;103601;1302;24326;-29
2022/01/03 02:42:03;;;;;;;2.80;1.70;;;;;;;7.73;81.11;98594.87;103611;1302;24268;-25
2022/01/03 02:44:29;;;;;;;5.80;2.40;;;;;;;7.89;80.68;98589.89;103552;1302;22520;-29
2022/01/03 02:46:55;;;;;;;5.50;1.90;;;;;;;7.68;81.35;98588.80;103546;1302;24195;-25
2022/01/03 02:49:21;;;;;;;11.20;2.50;;;;;;;7.72;81.46;98582.86;103507;1301;24253;-29
2022/01/03 02:51:47;;;;;;;3.40;1.70;;;;;;;7.93;80.31;98580.28;103516;1301;22710;-25
2022/01/03 02:54:13;;;;;;;4.90;2.90;;;;;;;7.68;81.30;98579.88;103497;1302;24255;-28
2022/01/03 02:56:39;;;;;;;4.30;2.50;;;;;;;7.52;82.27;98581.31;103572;1302;24188;-25
2022/01/03 02:59:11;;;;;;;8.30;2.70;;;;;;;7.53;82.39;98577.45;103552;1302;24321;-25
2022/01/03 03:01:36;;;;;;;3.40;2.70;;;;;;;7.33;83.04;98575.29;103553;1302;23958;-24
2022/01/03 03:04:02;;;;;;;4.50;1.80;;;;;;;7.37;83.22;98565.14;103516;1302;24286;-25
2022/01/03 03:06:30;;;;;;;5.70;2.50;;;;;;;7.28;83.29;98562.85;103586;1302;24239;-29
2022/01/03 03:08:56;;;;;;;5.30;2.60;;;;;;;7.25;83.50;98559.33;103532;1302;24226;-25
2022/01/03 03:11:21;;;;;;;5.90;2.50;;;;;;;7.20;83.91;98554.49;103551;1302;24375;-25
2022/01/03 03:13:47;;;;;;;8.80;2.60;;;;;;;7.16;84.14;98548.95;103618;1301;24260;-29
2022/01/03 03:16:13;;;;;;;3.90;2.00;;;;;;;7.27;83.55;98548.95;103593;1302;24193;-29
2022/01/03 03:18:43;;;;;;;3.60;2.20;;;;;;;7.40;83.36;98540.38;103568;1302;24427;-29
2022/01/03 03:21:10;;;;;;;15.50;2.70;;;;;;;7.62;82.01;98542.19;103526;1302;22499;-25
2022/01/03 03:23:36;;;;;;;5.00;2.70;;;;;;;7.45;82.70;98549.71;103521;1302;24227;-29
2022/01/03 03:26:02;;;;;;;3.90;2.60;;;;;;;7.56;82.64;98550.14;103487;1302;24284;-29
2022/01/03 03:28:28;;;;;;;3.10;1.70;;;;;;;7.56;82.60;98546.27;103464;1301;24262;-25
2022/01/03 03:30:54;;;;;;;5.70;2.20;;;;;;;7.37;83.02;98556.86;103515;1302;24205;-25
2022/01/03 03:33:22;;;;;;;4.50;2.30;;;;;;;7.25;83.96;98556.70;103591;1302;22500;-31
2022/01/03 03:35:50;;;;;;;5.60;2.40;;;;;;;7.37;83.65;98558.33;103582;1302;24342;-30
2022/01/03 03:38:16;;;;;;;3.40;2.50;;;;;;;7.34;83.53;98555.86;103587;1302;22508;-25
2022/01/03 03:40:45;;;;;;;2.80;2.20;;;;;;;7.37;83.34;98549.98;103509;1302;24352;-24
2022/01/03 03:43:12;;;;;;;4.30;2.70;;;;;;;7.41;83.13;98542.17;103440;1302;24355;-29
2022/01/03 03:45:38;;;;;;;6.90;2.10;;;;;;;7.21;83.82;98538.84;103499;1302;24175;-25
2022/01/03 03:48:06;;;;;;;4.10;2.70;;;;;;;7.01;84.62;98538.14;103471;1302;24460;-29
2022/01/03 03:50:31;;;;;;;3.60;2.00;;;;;;;7.16;84.39;98538.40;103565;1302;24215;-31
2022/01/03 03:52:57;;;;;;;4.10;2.30;;;;;;;6.97;85.09;98541.39;103533;1302;24439;-25
2022/01/03 03:55:23;;;;;;;6.50;1.90;;;;;;;7.02;85.39;98545.90;103471;1301;24136;-29
2022/01/03 03:57:49;;;;;;;3.90;2.10;;;;;;;7.09;84.94;98539.38;103553;1302;24270;-29
2022/01/03 04:00:17;;;;;;;3.00;2.00;;;;;;;7.25;84.50;98536.52;103518;1302;24496;-25
2022/01/03 04:02:44;;;;;;;4.70;1.50;;;;;;;7.20;84.50;98534.65;103610;1302;22714;-26
2022/01/03 04:05:10;;;;;;;5.20;1.90;;;;;;;7.35;84.07;98533.50;103527;1302;24170;-29
2022/01/03 04:07:36;;;;;;;12.90;2.80;;;;;;;7.43;84.09;98530.34;103569;1302;24260;-25
2022/01/03 04:10:04;;;;;;;5.60;1.90;;;;;;;7.48;84.28;98530.20;103217;1302;465110;-29
2022/01/03 04:12:30;;;;;;;3.70;1.40;;;;;;;7.56;84.70;98528.30;103549;1302;24308;-24
2022/01/03 04:14:55;;;;;;;3.20;1.50;;;;;;;7.58;85.75;98524.08;103526;1302;23872;-26
2022/01/03 04:17:21;;;;;;;2.60;1.40;;;;;;;7.27;87.83;98517.55;103565;1300;24253;-25
2022/01/03 04:19:49;;;;;;;6.40;1.80;;;;;;;7.23;89.21;98519.34;103521;1302;24323;-29
2022/01/03 04:22:15;;;;;;;2.40;1.30;;;;;;;7.01;90.79;98510.20;103513;1302;24215;-25
2022/01/03 04:24:41;;;;;;;4.20;0.90;;;;;;;6.85;92.45;98520.85;103499;1302;24177;-27
2022/01/03 04:27:07;;;;;;;5.60;1.00;;;;;;;7.03;92.56;98513.27;103475;1302;24136;-29
2022/01/03 04:29:32;;;;;;;3.90;2.10;;;;;;;6.93;93.04;98504.36;103525;1302;24302;-29
2022/01/03 04:31:59;;;;;;;1.50;1.00;;;;;;;6.87;93.89;98507.06;103487;1302;24323;-29
2022/01/03 04:34:25;;;;;;;2.80;1.30;;;;;;;6.90;94.91;98499.94;103560;1302;22511;-29
2022/01/03 04:36:50;;;;;;;3.30;1.40;;;;;;;7.09;94.07;98497.32;103543;1302;22635;-29
2022/01/03 04:39:16;;;;;;;1.80;1.40;;;;;;;7.00;94.66;98501.37;103497;1302;22502;-29
2022/01/03 04:41:42;;;;;;;2.90;1.60;;;;;;;6.99;94.80;98495.37;103526;1302;24174;-29
2022/01/03 04:44:09;;;;;;;2.50;1.30;;;;;;;7.02;94.98;98493.01;103564;1302;24413;-25
2022/01/03 04:46:35;;;;;;;3.80;1.30;;;;;;;7.11;94.87;98487.55;103536;1302;24268;-29
2022/01/03 04:49:01;;;;;;;2.00;1.40;;;;;;;7.36;93.45;98479.17;103533;1302;24322;-24
2022/01/03 04:51:27;;;;;;;4.90;1.90;;;;;;;7.12;94.55;98475.15;103490;1302;24229;-26
2022/01/03 04:53:53;;;;;;;3.60;2.00;;;;;;;7.03;95.21;98470.66;103475;1302;24252;-24
2022/01/03 04:56:19;;;;;;;3.50;1.40;;;;;;;7.59;93.09;98458.19;103510;1302;22590;-30
2022/01/03 04:58:45;;;;;;;11.10;1.50;;;;;;;7.30;93.40;98459.63;103523;1302;24296;-27
2022/01/03 05:01:12;;;;;;;2.50;1.50;;;;;;;7.30;93.47;98452.95;103532;1302;24203;-24
2022/01/03 05:03:38;;;;;;;2.00;1.40;;;;;;;7.39;93.20;98444.84;103532;1301;24422;-30
2022/01/03 05:06:04;;;;;;;4.60;1.90;;;;;;;7.46;92.88;98444.81;103487;1302;24297;-30
2022/01/03 05:08:30;;;;;;;4.30;2.10;;;;;;;7.35;93.16;98446.46;103572;1302;24356;-29
2022/01/03 05:11:00;;;;;;;0.80;0.60;;;;;;;7.32;93.21;98451.05;103528;1302;24372;-30
2022/01/03 05:13:26;;;;;;;2.10;1.40;;;;;;;7.35;93.38;98455.26;103447;1302;24212;-24
2022/01/03 05:15:52;;;;;;;2.30;1.30;;;;;;;7.53;92.23;98445.67;103546;1302;24280;-30
2022/01/03 05:18:18;;;;;;;2.00;1.20;;;;;;;7.60;91.85;98439.60;103669;1302;24384;-32
2022/01/03 05:20:44;;;;;;;2.90;1.10;;;;;;;7.53;92.16;98440.44;103540;1302;24285;-24
2022/01/03 05:23:11;;;;;;;3.90;1.90;;;;;;;7.53;91.44;98424.98;103525;1302;24378;-32
2022/01/03 05:25:38;;;;;;;2.60;1.60;;;;;;;7.41;91.67;98427.21;103524;1302;24244;-28
2022/01/03 05:28:04;;;;;;;3.70;1.60;;;;;;;7.43;91.43;98417.73;103523;1302;24214;-25
2022/01/03 05:30:30;;;;;;;4.00;1.60;;;;;;;7.53;91.24;98425.60;103564;1302;24213;-32
2022/01/03 05:32:56;;;;;;;1.90;1.30;;;;;;;7.83;89.71;98427.80;103515;1302;24274;-26
2022/01/03 05:35:22;;;;;;;2.30;1.20;;;;;;;7.37;91.53;98438.09;103527;1302;24189;-24
2022/01/03 05:37:48;;;;;;;2.80;1.50;;;;;;;7.42;91.96;98428.08;103506;1302;24382;-23
2022/01/03 05:40:13;;;;;;;3.40;1.10;;;;;;;7.62;90.73;98436.77;103483;1302;24193;-24
2022/01/03 05:42:41;;;;;;;3.10;1.30;;;;;;;7.51;91.14;98443.77;103581;1302;24254;-29
2022/01/03 05:45:07;;;;;;;2.30;1.00;;;;;;;7.90;89.75;98445.76;103579;1302;22841;-29
2022/01/03 05:47:32;;;;;;;3.00;1.50;;;;;;;8.07;87.92;98448.60;103516;1302;24260;-24
2022/01/03 05:49:59;;;;;;;2.50;1.10;;;;;;;7.79;89.49;98456.32;103507;1302;24390;-24
2022/01/03 05:52:25;;;;;;;3.20;1.50;;;;;;;7.85;89.30;98450.58;103583;1302;24380;-29
2022/01/03 05:54:52;;;;;;;2.00;1.00;;;;;;;7.58;90.34;98455.27;103426;1301;24256;-24
2022/01/03 05:57:18;;;;;;;2.50;1.20;;;;;;;7.89;88.82;98449.45;103559;1302;24227;-24
2022/01/03 05:59:44;;;;;;;3.50;0.90;;;;;;;7.82;88.44;98446.12;103536;1302;24218;-29
2022/01/03 06:02:10;;;;;;;2.30;0.70;;;;;;;7.65;89.34;98440.00;103514;1302;24499;-24
2022/01/03 06:04:52;;;;;;;4.70;1.10;;;;;;;7.51;89.73;98437.02;103499;1302;24225;-29
2022/01/03 06:07:18;;;;;;;1.50;0.80;;;;;;;7.57;89.44;98438.86;103491;1302;23936;-29
2022/01/03 06:09:44;;;;;;;1.10;0.60;;;;;;;7.70;88.12;98437.71;103477;1302;24251;-24
2022/01/03 06:12:10;;;;;;;1.20;0.50;;;;;;;7.84;87.58;98444.47;103524;1302;24219;-27
2022/01/03 06:14:37;;;;;;;0.90;0.50;;;;;;;7.98;85.98;98445.58;103506;1302;22513;-24
2022/01/03 06:17:04;;;;;;;0.90;0.60;;;;;;;7.98;85.53;98443.15;103555;1299;22508;-29
2022/01/03 06:19:30;;;;;;;2.80;0.80;;;;;;;8.24;84.02;98449.85;103471;1302;24306;-29
2022/01/03 06:21:56;;;;;;;0.70;0.50;;;;;;;8.80;80.77;98441.21;103506;1302;22521;-24
2022/01/03 06:24:22;;;;;;;2.00;0.50;;;;;;;9.16;78.71;98438.40;103553;1302;24270;-25
2022/01/03 06:26:48;;;;;;;0.80;0.40;;;;;;;9.17;78.16;98442.38;103508;1302;22524;-24
2022/01/03 06:29:14;;;;;;;2.40;0.60;;;;;;;9.23;77.16;98447.96;103541;1302;24516;-27
2022/01/03 06:31:41;;;;;;;0.40;0.30;;;;;;;9.15;77.55;98451.14;103559;1299;24252;-24
2022/01/03 06:34:07;;;;;;;1.50;0.70;;;;;;;9.12;77.79;98456.54;103509;1302;24372;-25
2022/01/03 06:36:33;;;;;;;0.50;0.30;;;;;;;9.28;76.54;98455.75;103512;1300;25472;-29
2022/01/03 06:39:00;;;;;;;0.30;0.30;;;;;;;9.22;76.68;98457.79;103519;1302;22524;-24
2022/01/03 06:41:26;;;;;;;0.40;0.20;;;;;;;9.13;76.67;98459.47;103470;1302;22746;-29
2022/01/03 06:43:52;;;;;;;1.00;0.40;;;;;;;9.07;76.94;98469.75;103574;1302;24207;-29
2022/01/03 06:46:18;;;;;;;0.40;0.20;;;;;;;9.10;76.93;98463.43;103515;1302;24154;-29
2022/01/03 06:48:46;;;;;;;0.40;0.10;;;;;;;9.34;76.07;98475.92;103525;1302;24302;-24
2022/01/03 06:51:13;;;;;;;1.10;0.30;;;;;;;8.92;77.53;98472.94;103540;1302;22618;-29
2022/01/03 06:53:39;;;;;;;0.60;0.10;;;;;;;8.97;77.09;98482.57;103559;1302;22516;-29
2022/01/03 06:56:05;;;;;;;1.00;0.30;;;;;;;9.36;75.19;98480.34;103561;1302;24158;-29
2022/01/03 06:58:32;;;;;;;0.90;0.30;;;;;;;9.15;76.23;98493.27;103500;1302;24467;-29
2022/01/03 07:00:58;;;;;;;0.90;0.10;;;;;;;9.11;76.46;98491.67;103540;1302;24335;-25
2022/01/03 07:03:24;;;;;;;0.50;0.30;;;;;;;9.14;76.02;98490.44;103512;1301;24324;-31
2022/01/03 07:05:50;;;;;;;0.40;0.30;;;;;;;9.21;75.83;98491.13;103554;1302;24176;-31
2022/01/03 07:08:16;;;;;;;1.00;0.50;;;;;;;9.14;75.61;98500.02;103559;1302;24187;-29
2022/01/03 07:10:42;;;;;;;0.70;0.20;;;;;;;8.88;77.38;98510.33;103535;1302;24247;-29
2022/01/03 07:13:08;;;;;;;1.10;0.50;;;;;;;8.92;76.68;98512.66;103600;1302;24152;-28
2022/01/03 07:20:33;;;;;;;0.40;0.40;;;;;;;8.97;75.85;98509.94;103536;1302;24360;-29
2022/01/03 07:23:00;;;;;;;1.10;0.50;;;;;;;9.18;75.37;98501.92;103535;1302;24250;-26
2022/01/03 07:25:26;;;;;;;2.10;0.60;;;;;;;9.17;75.28;98510.19;103564;1302;24219;-29
2022/01/03 07:27:52;;;;;;;2.50;0.40;;;;;;;8.97;75.75;98505.52;103578;1302;24203;-25
2022/01/03 07:30:18;;;;;;;0.80;0.50;;;;;;;9.21;75.11;98506.85;103385;1302;24275;-29
2022/01/03 07:32:44;;;;;;;0.70;0.30;;;;;;;9.04;75.29;98506.55;103592;1302;24316;-30
2022/01/03 07:35:13;;;;;;;1.00;0.60;;;;;;;8.87;75.97;98513.69;103571;1302;24231;-25
2022/01/03 07:37:40;;;;;;;0.80;0.40;;;;;;;9.12;75.19;98520.13;103558;1302;23839;-29
2022/01/03 07:40:06;;;;;;;1.30;0.30;;;;;;;9.32;74.00;98517.41;103491;1302;24213;-29
2022/01/03 07:42:32;;;;;;;0.50;0.30;;;;;;;9.17;73.85;98511.14;103530;1302;22517;-24
2022/01/03 07:44:58;;;;;;;2.50;0.50;;;;;;;9.46;72.73;98513.09;103481;1302;24351;-25
2022/01/03 07:47:24;;;;;;;1.10;0.30;;;;;;;9.49;72.15;98517.11;103507;1302;22511;-29
2022/01/03 07:49:50;;;;;;;0.40;0.20;;;;;;;9.35;72.87;98518.27;103590;1301;24335;-25
2022/01/03 07:52:16;;;;;;;0.50;0.10;;;;;;;9.24;72.63;98518.74;103546;1302;24203;-25
2022/01/03 07:54:42;;;;;;;1.00;0.60;;;;;;;9.40;72.19;98524.24;103262;1305;24324;-29
2022/01/03 07:57:08;;;;;;;2.00;0.50;;;;;;;9.37;72.30;98530.39;103418;1303;24387;-30
2022/01/03 07:59:34;;;;;;;1.10;0.60;;;;;;;9.43;71.80;98526.25;103396;1303;24197;-34
2022/01/03 08:02:00;;;;;;;0.60;0.20;;;;;;;9.27;71.92;98532.83;103437;1303;24222;-29
2022/01/03 08:04:26;;;;;;;11.50;0.60;;;;;;;9.36;71.63;98528.09;103438;1303;24266;-25
2022/01/03 08:06:52;;;;;;;0.40;0.30;;;;;;;9.26;72.09;98541.50;103445;1304;24160;-25
2022/01/03 08:09:18;;;;;;;2.00;0.30;;;;;;;9.57;70.88;98526.41;103442;1303;24392;-24
2022/01/03 08:11:44;;;;;;;1.90;0.50;;;;;;;9.71;69.97;98537.91;103556;1303;24486;-31
2022/01/03 08:14:10;;;;;;;2.50;0.70;;;;;;;9.80;68.91;98534.90;103698;1303;24278;-31
2022/01/03 08:16:36;;;;;;;5.50;0.40;;;;;;;9.79;69.22;98533.22;103475;1303;24237;-29
2022/01/03 08:19:02;;;;;;;2.90;0.40;;;;;;;9.57;69.68;98535.52;103413;1303;24221;-26
2022/01/03 08:21:28;;;;;;;0.80;0.20;;;;;;;9.63;69.11;98526.90;103397;1303;22945;-28
2022/01/03 08:23:54;;;;;;;2.90;0.30;;;;;;;9.74;68.52;98533.53;103398;1303;24204;-30
2022/01/03 08:26:21;;;;;;;0.30;0.10;;;;;;;9.72;68.51;98525.25;103408;1303;22513;-29
2022/01/03 08:28:47;;;;;;;5.10;0.50;;;;;;;9.69;68.88;98532.89;103430;1303;24225;-24
2022/01/03 08:31:13;;;;;;;1.00;0.30;;;;;;;9.66;68.65;98521.15;103399;1303;24222;-24
2022/01/03 08:33:40;;;;;;;1.20;0.50;;;;;;;9.83;67.55;98527.35;103353;1303;24309;-29
2022/01/03 08:36:06;;;;;;;3.40;0.60;;;;;;;9.61;68.16;98524.66;103461;1303;22762;-29
2022/01/03 08:38:31;;;;;;;2.60;0.40;;;;;;;9.48;68.62;98527.59;103401;1303;24337;-29
2022/01/03 08:40:57;;;;;;;0.50;0.20;;;;;;;9.84;66.96;98519.30;103402;1302;24476;-30
2022/01/03 08:43:23;;;;;;;0.50;0.20;;;;;;;9.78;67.55;98527.56;103452;1303;24201;-24
2022/01/03 08:45:49;;;;;;;1.30;0.60;;;;;;;9.51;67.98;98529.23;103373;1303;24224;-25
2022/01/03 08:48:15;;;;;;;1.40;0.50;;;;;;;9.86;66.87;98515.23;103392;1303;24313;-26
2022/01/03 08:50:41;;;;;;;1.20;0.30;;;;;;;9.95;65.74;98525.52;103329;1303;24445;-29
2022/01/03 08:53:08;;;;;;;1.90;0.60;;;;;;;10.11;65.45;98528.58;103386;1303;24198;-30
2022/01/03 08:55:34;;;;;;;1.80;0.20;;;;;;;9.98;65.67;98524.92;103424;1302;22621;-25
2022/01/03 08:58:00;;;;;;;5.80;0.40;;;;;;;9.97;65.58;98529.51;103560;1302;22765;-29
2022/01/03 09:00:26;;;;;;;4.10;0.50;;;;;;;10.08;65.03;98533.65;103537;1302;24218;-29
2022/01/03 09:02:51;;;;;;;3.80;0.40;;;;;;;10.18;64.58;98526.48;103559;1302;24252;-25
2022/01/03 09:05:17;;;;;;;0.60;0.30;;;;;;;10.23;64.50;98526.69;103597;1302;24185;-24
2022/01/03 09:07:43;;;;;;;0.60;0.20;;;;;;;9.56;67.18;98533.71;104101;1302;24322;-25
2022/01/03 09:10:09;;;;;;;0.80;0.40;;;;;;;9.65;66.64;98515.11;103724;1302;22511;-30
2022/01/03 09:12:35;;;;;;;1.70;0.60;;;;;;;10.03;65.54;98522.72;103610;1302;24222;-31
2022/01/03 09:15:02;;;;;;;3.30;1.30;;;;;;;9.98;65.58;98524.59;103726;1302;22905;-30
2022/01/03 09:17:28;;;;;;;2.00;0.50;;;;;;;10.03;65.73;98535.42;103744;1302;24213;-29
2022/01/03 09:19:54;;;;;;;5.60;0.60;;;;;;;9.83;65.79;98513.48;103613;1302;24243;-25
2022/01/03 09:22:25;;;;;;;0.90;0.30;;;;;;;9.89;66.15;98529.42;103495;1302;24325;-29
2022/01/03 09:29:47;;;;;;;2.20;0.40;;;;;;;10.05;65.55;98517.79;103548;1302;22506;-29
2022/01/03 09:32:13;;;;;;;1.10;0.40;;;;;;;10.02;65.41;98518.41;103595;1302;24222;-25
2022/01/03 09:34:39;;;;;;;2.70;0.60;;;;;;;10.05;64.96;98515.51;103573;1302;24267;-24
2022/01/03 09:37:06;;;;;;;4.80;0.60;;;;;;;10.02;65.34;98530.40;103527;1302;22516;-29
2022/01/03 09:39:32;;;;;;;2.30;0.80;;;;;;;10.05;64.87;98527.81;103483;1302;24186;-27
2022/01/03 09:42:02;;;;;;;0.90;0.50;;;;;;;9.89;65.49;98517.59;103544;1302;24393;-31
2022/01/03 09:44:30;;;;;;;6.40;1.00;;;;;;;10.04;65.59;98524.44;103565;1302;24171;-25
2022/01/03 09:46:59;;;;;;;5.20;0.80;;;;;;;10.13;65.17;98525.92;103490;1302;22639;-27
2022/01/03 09:49:25;;;;;;;3.60;0.30;;;;;;;10.08;64.91;98526.44;103557;1302;22971;-29
2022/01/03 09:51:51;;;;;;;3.20;0.20;;;;;;;9.90;66.17;98526.90;103480;1302;22504;-29
2022/01/03 09:54:21;;;;;;;4.40;0.70;;;;;;;10.15;65.13;98541.31;103403;1302;24302;-29
2022/01/03 09:56:47;;;;;;;5.40;0.90;;;;;;;9.85;65.95;98520.92;103492;1302;23115;-30
2022/01/03 09:59:15;;;;;;;3.10;1.10;;;;;;;10.12;64.88;98522.16;103577;1302;24196;-28
2022/01/03 10:01:41;;;;;;;1.60;0.40;;;;;;;10.11;64.78;98524.52;103516;1302;23936;-29
2022/01/03 10:04:09;;;;;;;4.00;0.80;;;;;;;9.93;65.84;98528.73;103500;1302;24229;-25
2022/01/03 10:06:36;;;;;;;5.80;0.90;;;;;;;9.87;66.14;98518.98;103501;1302;24994;-25
2022/01/03 10:09:02;;;;;;;1.90;0.50;;;;;;;10.08;65.17;98517.73;103560;1302;24031;-27
2022/01/03 10:11:28;;;;;;;2.30;0.80;;;;;;;9.85;65.81;98516.84;103559;1302;24259;-22
2022/01/03 10:13:54;;;;;;;1.60;0.60;;;;;;;10.02;65.19;98527.92;103540;1302;22512;-25
2022/01/03 10:16:20;;;;;;;1.60;0.80;;;;;;;9.86;66.16;98531.95;103522;1301;24360;-25
2022/01/03 10:18:46;;;;;;;4.50;0.60;;;;;;;9.91;65.61;98526.73;103547;1302;24210;-25
2022/01/03 10:21:12;;;;;;;6.10;1.20;;;;;;;10.18;64.30;98524.74;103558;1302;24205;-30
2022/01/03 10:23:52;;;;;;;3.00;0.70;;;;;;;10.11;65.23;98527.49;103505;1302;24274;-25
2022/01/03 10:26:20;;;;;;;1.50;0.50;;;;;;;9.87;65.91;98533.88;103584;1302;24222;-30
2022/01/03 10:28:46;;;;;;;5.50;1.10;;;;;;;9.95;65.76;98537.27;103593;1302;24175;-25
2022/01/03 10:31:16;;;;;;;3.70;1.20;;;;;;;10.04;65.49;98533.31;103472;1302;24405;-29
2022/01/03 10:33:43;;;;;;;1.20;0.70;;;;;;;9.80;65.93;98537.58;103599;1302;24338;-25
2022/01/03 10:36:23;;;;;;;0.80;0.40;;;;;;;9.80;65.97;98523.27;103521;1302;24353;-29
2022/01/03 10:38:50;;;;;;;4.10;1.20;;;;;;;10.19;65.03;98531.58;103504;1302;24252;-29
2022/01/03 10:41:18;;;;;;;2.10;0.60;;;;;;;10.00;65.79;98525.85;103558;1301;24238;-25
2022/01/03 10:43:45;;;;;;;1.60;0.60;;;;;;;10.10;65.90;98534.22;103586;1302;24309;-25
2022/01/03 10:46:15;;;;;;;3.80;0.90;;;;;;;10.29;65.22;98536.40;103524;1302;24319;-29
2022/01/03 10:48:41;;;;;;;1.60;0.40;;;;;;;9.81;67.47;98556.92;103545;1302;24175;-25
2022/01/03 10:51:07;;;;;;;9.20;0.80;;;;;;;9.92;67.19;98552.55;103479;1302;24420;-29
2022/01/03 10:53:35;;;;;;;6.10;0.90;;;;;;;9.94;67.48;98546.41;103448;1302;24331;-27
2022/01/03 10:56:24;;;;;;;7.50;0.90;;;;;;;10.09;67.11;98549.63;103561;1302;24157;-29
2022/01/03 10:58:52;;;;;;;3.70;0.50;;;;;;;10.17;66.87;98553.17;103587;1302;22689;-24
2022/01/03 11:01:20;;;;;;;1.50;1.10;;;;;;;9.81;68.32;98558.95;103711;1302;22504;-25
2022/01/03 11:03:47;;;;;;;3.80;0.90;;;;;;;10.10;67.42;98566.95;103607;1302;25360;-27
2022/01/03 11:06:23;;;;;;;2.50;0.40;;;;;;;9.94;67.89;98570.66;103528;1302;22563;-29
2022/01/03 11:11:33;;;;;;;3.10;1.10;;;;;;;9.79;68.98;98574.89;103503;1302;24236;-29
2022/01/03 11:13:59;;;;;;;6.80;0.80;;;;;;;10.01;67.63;98569.94;103551;1302;22853;-25
2022/01/03 11:16:30;;;;;;;1.50;0.70;;;;;;;10.07;68.01;98568.92;103479;1302;24166;-29
2022/01/03 11:18:56;;;;;;;9.20;1.80;;;;;;;10.13;66.69;98537.14;103504;1302;24225;-25
2022/01/03 11:21:23;;;;;;;9.50;0.70;;;;;;;10.07;66.84;98553.32;103471;1302;24335;-27
2022/01/03 11:23:56;;;;;;;3.80;1.60;;;;;;;10.16;66.85;98570.77;103510;1302;24294;-28
2022/01/03 11:26:22;;;;;;;4.90;2.30;;;;;;;9.71;69.30;98575.73;103516;1302;24240;-27
2022/01/03 11:28:50;;;;;;;1.30;0.60;;;;;;;9.49;71.05;98576.16;103609;1302;22559;-27
2022/01/03 11:31:17;;;;;;;4.50;2.50;;;;;;;9.24;72.26;98584.77;103536;1302;22571;-29
2022/01/03 11:33:46;;;;;;;9.40;3.00;;;;;;;9.18;72.53;98584.13;103550;1302;24342;-29
2022/01/03 11:36:11;;;;;;;6.40;3.10;;;;;;;9.55;70.85;98583.20;103528;1302;24255;-29
2022/01/03 11:38:40;;;;;;;5.80;2.70;;;;;;;9.13;73.10;98584.46;103531;1300;24331;-24
2022/01/03 11:41:08;;;;;;;11.80;2.00;;;;;;;8.70;77.53;98586.92;103499;1302;24445;-24
2022/01/03 11:43:35;;;;;;;2.00;0.80;;;;;;;8.27;79.87;98598.30;103506;1302;24256;-32